Airfield :
LOGIN :

Register | Disclaimer

   EN    FR    IT 

 










Legend :    VFR   Marginal VFR   IFR   Intensive IFR   Very Intensive IFR
Visi :
Ceiling :
>= 8 km
>= 3000ft
5 to 8 km
1000 to 3000 ft
1500m to 5 km
500 to 1000 ft
800 to 1500m
200 to 500 ft
< 800m
< 200 ft
Symbols :   Thunderstorms  Fog  Heavy snow  Heavy precipitations  Wind > 20 kt
SIGMETs :     Misc.  Thunderstorms  Icing  Turbulence  Mountain Waves  Volcanic Ashes






- Airport Elevation : 102 ft
- IATA code : EXT


EGTE - Exeter

CURRENT METAR :
  • 232250Z VRB02KT 1100 0500W BR FEW040 10/10 Q1006

EXPIRED METARs :
  • 232220Z VRB02KT 9000 FEW040 11/11 Q1006
  • 232150Z 12003KT 7000 FEW040 11/11 Q1006
  • 232120Z VRB02KT 7000 -RA SCT038 11/11 Q1006
  • 232050Z VRB02KT 6000 -RA SCT038 12/11 Q1007

TAF TAF EGTE
Valid from the 23 at 21:00 until the 24 at 03:00 UTC


232001Z 2321/2403 VRB03KT 8000 FEW008 SCT040
TEMPO 2321/2324 4000 RADZ BR BKN008
BECMG 2400/2403 0300 FG BKN001



MET'MAP, your aeronautical weather chart ! - Copyright ORBIFLY December 2007 - Disclaimer

ORBIFLY MET'MAP TEAM :

Programming & Development : Alexandra Zaïnal
Concept & Development : Baudouin d'Aumeries
Co-Development & Prog : Marc-Olivier Méhu
Technical & hardware support : Manuel Goepfert

Contact : metmap@orbifly.com




SOURCES & CREDITS :

   NOAA